createdAt,value
2022-10-28T00:03:19.433Z,100.00
2022-10-28T00:08:20.869Z,100.00
2022-10-28T00:13:22.323Z,100.00
2022-10-28T00:18:23.756Z,100.00
2022-10-28T00:23:25.181Z,100.00
2022-10-28T00:28:26.641Z,100.00
2022-10-28T00:33:28.031Z,100.00
2022-10-28T00:38:30.783Z,100.00
2022-10-28T00:43:40.959Z,100.00
2022-10-28T00:48:45.133Z,100.00
2022-10-28T00:53:48.240Z,100.00
2022-10-28T00:58:51.173Z,100.00
2022-10-28T01:03:53.696Z,100.00
2022-10-28T01:08:59.046Z,100.00
2022-10-28T01:14:23.613Z,100.00
2022-10-28T01:19:43.943Z,100.00
2022-10-28T01:25:02.429Z,100.00
2022-10-28T01:30:23.673Z,100.00
2022-10-28T01:35:43.733Z,100.00
2022-10-28T01:40:57.090Z,100.00
2022-10-28T01:46:04.397Z,100.00
2022-10-28T01:51:22.373Z,100.00
2022-10-28T01:56:30.952Z,100.00
2022-10-28T02:01:34.076Z,100.00
2022-10-28T02:06:38.776Z,100.00
2022-10-28T02:12:07.576Z,100.00
2022-10-28T02:17:30.224Z,100.00
2022-10-28T02:22:57.930Z,100.00
2022-10-28T02:28:08.399Z,100.00
2022-10-28T02:33:13.100Z,100.00
2022-10-28T02:38:20.791Z,100.00
2022-10-28T02:43:24.811Z,100.00
2022-10-28T02:48:31.157Z,100.00
2022-10-28T02:53:42.407Z,100.00
2022-10-28T02:58:45.408Z,100.00
2022-10-28T03:03:46.924Z,100.00
2022-10-28T03:08:48.400Z,100.00
2022-10-28T03:13:49.914Z,100.00
2022-10-28T03:18:51.335Z,100.00
2022-10-28T03:23:52.935Z,100.00
2022-10-28T03:28:54.368Z,100.00
2022-10-28T03:33:56.004Z,100.00
2022-10-28T03:38:57.475Z,100.00
2022-10-28T03:43:59.105Z,100.00
2022-10-28T03:49:00.562Z,100.00
2022-10-28T03:54:02.100Z,100.00
2022-10-28T03:59:03.587Z,100.00
2022-10-28T04:04:05.397Z,100.00
2022-10-28T04:09:06.930Z,100.00
2022-10-28T04:14:08.410Z,100.00
2022-10-28T04:19:09.888Z,100.00
2022-10-28T04:24:11.381Z,100.00
2022-10-28T04:29:12.840Z,100.00
2022-10-28T04:34:14.375Z,100.00
2022-10-28T04:39:15.904Z,100.00
2022-10-28T04:44:17.436Z,100.00
2022-10-28T04:49:18.902Z,100.00
2022-10-28T04:54:20.327Z,100.00
2022-10-28T04:59:21.799Z,100.00
2022-10-28T05:04:23.363Z,100.00
2022-10-28T05:09:24.849Z,100.00
2022-10-28T05:14:26.356Z,100.00
2022-10-28T05:19:27.837Z,100.00
2022-10-28T05:24:29.318Z,100.00
2022-10-28T05:29:33.332Z,100.00
2022-10-28T05:34:35.073Z,100.00
2022-10-28T05:39:36.523Z,100.00
2022-10-28T05:44:38.126Z,100.00
2022-10-28T05:49:39.831Z,100.00
2022-10-28T05:54:41.334Z,100.00
2022-10-28T05:59:42.788Z,100.00
2022-10-28T06:04:44.275Z,100.00
2022-10-28T06:09:45.740Z,100.00
2022-10-28T06:14:45.745Z,100.00
2022-10-28T06:19:47.271Z,100.00
2022-10-28T06:24:48.738Z,100.00
2022-10-28T06:29:50.179Z,100.00
2022-10-28T06:34:51.787Z,100.00
2022-10-28T06:39:53.344Z,100.00
2022-10-28T06:44:54.957Z,100.00
2022-10-28T06:49:57.961Z,100.00
2022-10-28T06:54:59.393Z,100.00
2022-10-28T07:00:00.888Z,100.00
2022-10-28T07:05:02.330Z,100.00
2022-10-28T07:10:07.346Z,100.00
2022-10-28T07:15:10.201Z,100.00
2022-10-28T07:20:11.839Z,100.00
2022-10-28T07:25:13.426Z,100.00
2022-10-28T07:30:15.004Z,100.00
2022-10-28T07:35:16.637Z,100.00
2022-10-28T07:40:19.316Z,100.00
2022-10-28T07:45:21.163Z,100.00
2022-10-28T07:50:22.785Z,100.00
2022-10-28T07:55:26.074Z,100.00
2022-10-28T08:00:27.686Z,100.00
2022-10-28T08:05:29.227Z,100.00
2022-10-28T08:10:30.675Z,100.00
2022-10-28T08:15:32.223Z,100.00
2022-10-28T08:20:33.751Z,100.00
2022-10-28T08:25:37.101Z,100.00
2022-10-28T08:30:56.659Z,100.00
2022-10-28T08:35:58.969Z,100.00
2022-10-28T08:41:06.338Z,100.00
2022-10-28T08:46:36.569Z,100.00
2022-10-28T08:52:02.116Z,99.41
2022-10-28T08:57:11.058Z,97.84
2022-10-28T09:02:24.691Z,97.03
2022-10-28T09:07:26.170Z,96.96
2022-10-28T09:12:53.987Z,96.29
2022-10-28T09:18:00.205Z,95.29
2022-10-28T09:23:23.334Z,94.87
2022-10-28T09:28:43.410Z,95.05
2022-10-28T09:33:55.909Z,92.61
2022-10-28T09:39:01.111Z,91.85
2022-10-28T09:44:12.356Z,92.26
2022-10-28T09:49:24.034Z,91.56
2022-10-28T09:54:34.643Z,92.29
2022-10-28T09:59:36.334Z,93.11
2022-10-28T10:04:37.858Z,92.59
2022-10-28T10:09:39.769Z,91.79
2022-10-28T10:14:56.519Z,91.61
2022-10-28T10:20:01.230Z,90.52
2022-10-28T10:25:21.271Z,88.58
2022-10-28T10:30:31.480Z,87.42
2022-10-28T10:35:37.652Z,85.84
2022-10-28T10:40:50.943Z,87.28
2022-10-28T10:46:18.055Z,85.20
2022-10-28T10:51:25.849Z,85.74
2022-10-28T10:56:32.978Z,85.81
2022-10-28T11:01:39.567Z,85.14
2022-10-28T11:06:48.698Z,84.30
2022-10-28T11:11:53.182Z,83.37
2022-10-28T11:16:59.791Z,82.31
2022-10-28T11:22:17.060Z,83.80
2022-10-28T11:27:40.705Z,82.80
2022-10-28T11:33:14.797Z,83.90
2022-10-28T11:38:35.099Z,82.34
2022-10-28T11:43:58.582Z,81.28
2022-10-28T11:49:37.841Z,80.88
2022-10-28T11:55:07.921Z,80.31
2022-10-28T12:00:34.928Z,80.14
2022-10-28T12:05:43.674Z,76.88
2022-10-28T12:11:11.633Z,75.22
2022-10-28T12:16:37.159Z,74.23
2022-10-28T12:21:57.432Z,72.09
2022-10-28T12:27:02.766Z,66.34
2022-10-28T12:32:12.255Z,65.64
2022-10-28T12:37:24.766Z,62.33
2022-10-28T12:42:34.032Z,61.67
2022-10-28T12:48:03.040Z,60.68
2022-10-28T12:53:04.500Z,61.33
2022-10-28T12:58:29.633Z,61.91
2022-10-28T13:03:31.559Z,59.53
2022-10-28T13:08:49.008Z,58.86
2022-10-28T13:14:02.260Z,59.48
2022-10-28T13:19:17.658Z,58.77
2022-10-28T13:24:51.903Z,59.05
2022-10-28T13:29:56.967Z,59.46
2022-10-28T13:35:00.419Z,61.01
2022-10-28T13:40:01.963Z,61.90
2022-10-28T13:45:03.888Z,62.06
2022-10-28T13:50:08.780Z,63.22
2022-10-28T13:55:27.293Z,64.80
2022-10-28T14:05:33.328Z,64.41
2022-10-28T14:10:38.425Z,63.97
2022-10-28T14:15:40.863Z,63.98
2022-10-28T14:20:48.262Z,63.82
2022-10-28T14:25:49.666Z,65.52
2022-10-28T14:31:12.265Z,64.55
2022-10-28T14:36:19.659Z,64.77
2022-10-28T14:41:36.059Z,65.14
2022-10-28T14:46:56.594Z,65.46
2022-10-28T14:52:07.334Z,65.50
2022-10-28T14:57:10.245Z,65.95
2022-10-28T15:02:22.692Z,66.35
2022-10-28T15:07:24.488Z,66.88
2022-10-28T15:12:26.563Z,66.56
2022-10-28T15:17:39.296Z,66.07
2022-10-28T15:22:41.685Z,66.65
2022-10-28T15:27:45.927Z,67.55
2022-10-28T15:32:47.404Z,67.56
2022-10-28T15:37:48.908Z,68.83
2022-10-28T15:43:04.972Z,69.57
2022-10-28T15:48:13.692Z,70.38
2022-10-28T15:53:40.037Z,72.25
2022-10-28T15:58:43.674Z,72.95
2022-10-28T16:03:47.023Z,73.87
2022-10-28T16:08:59.793Z,73.44
2022-10-28T16:14:07.503Z,73.26
2022-10-28T16:19:17.720Z,73.98
2022-10-28T16:24:19.222Z,74.50
2022-10-28T16:29:20.722Z,75.26
2022-10-28T16:34:22.225Z,75.60
2022-10-28T16:39:23.689Z,76.33
2022-10-28T16:44:27.121Z,77.88
2022-10-28T16:49:28.687Z,77.05
2022-10-28T16:54:30.133Z,78.23
2022-10-28T16:59:31.869Z,79.28
2022-10-28T17:04:33.406Z,79.65
2022-10-28T17:09:34.869Z,80.23
2022-10-28T17:14:36.323Z,80.69
2022-10-28T17:19:38.557Z,80.45
2022-10-28T17:24:40.076Z,82.46
2022-10-28T17:29:41.620Z,83.34
2022-10-28T17:34:43.210Z,83.81
2022-10-28T17:39:44.836Z,84.35
2022-10-28T17:44:46.364Z,84.45
2022-10-28T17:49:47.906Z,86.10
2022-10-28T17:54:49.398Z,87.53
2022-10-28T17:59:50.864Z,88.26
2022-10-28T18:04:52.439Z,88.34
2022-10-28T18:09:54.021Z,89.55
2022-10-28T18:14:55.526Z,88.54
2022-10-28T18:19:57.697Z,87.45
2022-10-28T18:24:59.191Z,90.24
2022-10-28T18:30:00.716Z,90.38
2022-10-28T18:35:02.334Z,92.64
2022-10-28T18:40:04.211Z,93.70
2022-10-28T18:45:06.116Z,92.61
2022-10-28T18:50:07.968Z,91.83
2022-10-28T18:55:09.769Z,94.12
2022-10-28T19:00:18.026Z,95.05
2022-10-28T19:05:20.538Z,93.29
2022-10-28T19:10:22.049Z,94.84
2022-10-28T19:15:23.595Z,96.12
2022-10-28T19:20:25.250Z,96.17
2022-10-28T19:25:26.729Z,96.09
2022-10-28T19:30:28.327Z,98.02
2022-10-28T19:35:32.717Z,98.02
2022-10-28T19:40:34.198Z,97.07
2022-10-28T19:45:35.694Z,96.60
2022-10-28T19:50:37.313Z,95.19
2022-10-28T19:55:38.802Z,93.60
2022-10-28T20:00:40.334Z,92.11
2022-10-28T20:05:41.792Z,91.51
2022-10-28T20:10:44.019Z,92.15
2022-10-28T20:15:45.775Z,91.75
2022-10-28T20:20:47.594Z,92.22
2022-10-28T20:25:51.235Z,90.56
2022-10-28T20:31:07.532Z,90.07
2022-10-28T20:36:29.639Z,89.89
2022-10-28T20:41:33.487Z,89.16
2022-10-28T20:46:35.608Z,88.97
2022-10-28T20:51:37.073Z,89.30
2022-10-28T20:56:40.319Z,89.48
2022-10-28T21:01:42.004Z,90.49
2022-10-28T21:06:43.582Z,89.68
2022-10-28T21:11:46.177Z,89.36
2022-10-28T21:16:51.128Z,89.59
2022-10-28T21:21:52.515Z,90.16
2022-10-28T21:26:53.928Z,90.46
2022-10-28T21:31:55.344Z,90.50
2022-10-28T21:36:56.768Z,90.46
2022-10-28T21:41:58.185Z,90.45
2022-10-28T21:47:01.354Z,92.14
2022-10-28T21:52:02.824Z,93.35
2022-10-28T21:57:05.142Z,93.49
2022-10-28T22:02:06.651Z,95.41
2022-10-28T22:07:08.153Z,95.87
2022-10-28T22:12:09.553Z,96.58
2022-10-28T22:17:10.962Z,96.61
2022-10-28T22:22:13.671Z,97.70
2022-10-28T22:27:15.133Z,97.33
2022-10-28T22:32:16.558Z,97.69
2022-10-28T22:37:18.616Z,95.74
2022-10-28T22:42:20.093Z,95.38
2022-10-28T22:47:21.509Z,97.52
2022-10-28T22:52:22.915Z,99.19
2022-10-28T22:57:24.357Z,99.52
2022-10-28T23:02:25.830Z,100.00
2022-10-28T23:07:27.343Z,100.00
2022-10-28T23:12:28.800Z,100.00
2022-10-28T23:17:30.215Z,100.00
2022-10-28T23:22:31.679Z,99.02
2022-10-28T23:27:33.069Z,100.00
2022-10-28T23:32:34.918Z,99.50
2022-10-28T23:37:36.425Z,100.00
2022-10-28T23:42:37.863Z,100.00
2022-10-28T23:47:39.727Z,100.00
2022-10-28T23:52:41.731Z,100.00
2022-10-28T23:57:43.138Z,100.00
